AFR15Y LFPG-EHRD
Flight info
| Callsign | AFR15Y |
|---|---|
| Flight time | 0h 40m |
| Altitude | 26000 |
| Route | NURMO DCT CMB DCT VEKIN DCT ADUTO N873 FERDI Y18 DENUT |
| Aircraft | A321/M-SDE3FGHIRWY/LB1 |
Departure
| Time | 2026-05-08 12:35 |
|---|---|
| Airport | Charles de Gaulle International Airport (LFPG) |
Arrival
| Time | 2026-05-08 13:16 |
|---|---|
| Airport | Rotterdam The Hague Airport (EHRD) |
| Time | Latitude | Longitude | Altitude | Speed | Heading |
|---|---|---|---|---|---|
| 2026-05-08 12:02 | 49.00618 | 2.58014 | 358 ft | 0 kts | 274° |
| 2026-05-08 12:19 | 49.00618 | 2.58016 | 354 ft | 1 kts | 274° |
| 2026-05-08 12:19 | 49.00616 | 2.58054 | 356 ft | 4 kts | 274° |
| 2026-05-08 12:20 | 49.00613 | 2.58094 | 354 ft | 4 kts | 287° |
| 2026-05-08 12:20 | 49.00602 | 2.58129 | 359 ft | 4 kts | 315° |
| 2026-05-08 12:20 | 49.00581 | 2.58147 | 360 ft | 2 kts | 356° |
| 2026-05-08 12:20 | 49.00575 | 2.58148 | 362 ft | 0 kts | 356° |
| 2026-05-08 12:24 | 49.00594 | 2.58146 | 354 ft | 3 kts | 356° |
| 2026-05-08 12:24 | 49.00632 | 2.58142 | 362 ft | 11 kts | 355° |
| 2026-05-08 12:24 | 49.00740 | 2.58129 | 357 ft | 17 kts | 355° |
| 2026-05-08 12:25 | 49.00856 | 2.58108 | 363 ft | 15 kts | 346° |
| 2026-05-08 12:25 | 49.00902 | 2.57992 | 354 ft | 13 kts | 269° |
| 2026-05-08 12:25 | 49.00894 | 2.57856 | 362 ft | 13 kts | 266° |
| 2026-05-08 12:25 | 49.00887 | 2.57707 | 354 ft | 15 kts | 265° |
| 2026-05-08 12:26 | 49.00878 | 2.57534 | 361 ft | 17 kts | 265° |
| 2026-05-08 12:26 | 49.00867 | 2.57338 | 354 ft | 20 kts | 264° |
| 2026-05-08 12:26 | 49.00854 | 2.57115 | 361 ft | 22 kts | 265° |
| 2026-05-08 12:26 | 49.00841 | 2.56875 | 354 ft | 23 kts | 265° |
| 2026-05-08 12:27 | 49.00828 | 2.56624 | 354 ft | 24 kts | 265° |
| 2026-05-08 12:27 | 49.00809 | 2.56369 | 362 ft | 25 kts | 260° |
| 2026-05-08 12:27 | 49.00783 | 2.56110 | 356 ft | 25 kts | 262° |
| 2026-05-08 12:27 | 49.00761 | 2.55854 | 354 ft | 24 kts | 262° |
| 2026-05-08 12:28 | 49.00739 | 2.55608 | 359 ft | 23 kts | 263° |
| 2026-05-08 12:28 | 49.00720 | 2.55397 | 359 ft | 17 kts | 256° |
| 2026-05-08 12:28 | 49.00664 | 2.55252 | 356 ft | 16 kts | 204° |
| 2026-05-08 12:28 | 49.00563 | 2.55276 | 361 ft | 15 kts | 162° |
| 2026-05-08 12:29 | 49.00465 | 2.55321 | 357 ft | 15 kts | 163° |
| 2026-05-08 12:29 | 49.00364 | 2.55365 | 354 ft | 15 kts | 164° |
| 2026-05-08 12:29 | 49.00261 | 2.55410 | 361 ft | 15 kts | 163° |
| 2026-05-08 12:29 | 49.00152 | 2.55459 | 356 ft | 17 kts | 164° |
| 2026-05-08 12:30 | 49.00070 | 2.55493 | 362 ft | 7 kts | 166° |
| 2026-05-08 12:30 | 49.00067 | 2.55494 | 362 ft | 0 kts | 166° |
| 2026-05-08 12:31 | 49.00054 | 2.55498 | 357 ft | 5 kts | 166° |
| 2026-05-08 12:31 | 49.00005 | 2.55518 | 354 ft | 9 kts | 165° |
| 2026-05-08 12:31 | 48.99950 | 2.55544 | 354 ft | 8 kts | 158° |
| 2026-05-08 12:31 | 48.99900 | 2.55585 | 356 ft | 8 kts | 149° |
| 2026-05-08 12:32 | 48.99845 | 2.55687 | 362 ft | 19 kts | 116° |
| 2026-05-08 12:32 | 48.99784 | 2.55799 | 358 ft | 9 kts | 163° |
| 2026-05-08 12:32 | 48.99743 | 2.55805 | 359 ft | 0 kts | 176° |
| 2026-05-08 12:34 | 48.99664 | 2.55821 | 358 ft | 20 kts | 171° |
| 2026-05-08 12:34 | 48.99604 | 2.55937 | 354 ft | 14 kts | 86° |
| 2026-05-08 12:34 | 48.99606 | 2.55956 | 354 ft | 3 kts | 85° |
| 2026-05-08 12:34 | 48.99622 | 2.56251 | 357 ft | 63 kts | 85° |
| 2026-05-08 12:35 | 48.99675 | 2.57257 | 355 ft | 124 kts | 85° |
| 2026-05-08 12:35 | 48.99758 | 2.58808 | 353 ft | 168 kts | 85° |
| 2026-05-08 12:35 | 48.99832 | 2.60642 | 831 ft | 171 kts | 87° |
| 2026-05-08 12:35 | 48.99911 | 2.62459 | 1411 ft | 173 kts | 85° |
| 2026-05-08 12:36 | 49.00015 | 2.64297 | 1972 ft | 175 kts | 85° |
| 2026-05-08 12:36 | 49.00135 | 2.66228 | 2329 ft | 193 kts | 85° |
| 2026-05-08 12:36 | 49.00250 | 2.68358 | 2605 ft | 212 kts | 85° |
| 2026-05-08 12:36 | 49.00379 | 2.70698 | 2783 ft | 238 kts | 85° |
| 2026-05-08 12:37 | 49.00533 | 2.73346 | 3158 ft | 259 kts | 85° |
| 2026-05-08 12:37 | 49.00686 | 2.76083 | 4030 ft | 260 kts | 85° |
| 2026-05-08 12:37 | 49.00827 | 2.78844 | 4886 ft | 264 kts | 85° |
| 2026-05-08 12:37 | 49.00967 | 2.81658 | 5697 ft | 268 kts | 85° |
| 2026-05-08 12:38 | 49.01286 | 2.84462 | 6467 ft | 272 kts | 67° |
| 2026-05-08 12:38 | 49.02382 | 2.86797 | 7177 ft | 277 kts | 39° |
| 2026-05-08 12:38 | 49.04095 | 2.88161 | 7878 ft | 282 kts | 13° |
| 2026-05-08 12:38 | 49.06055 | 2.88284 | 8589 ft | 285 kts | 352° |
| 2026-05-08 12:39 | 49.08039 | 2.87940 | 9335 ft | 289 kts | 352° |
| 2026-05-08 12:39 | 49.10034 | 2.87596 | 9907 ft | 295 kts | 352° |
| 2026-05-08 12:39 | 49.12069 | 2.87253 | 10037 ft | 295 kts | 352° |
| 2026-05-08 12:39 | 49.14117 | 2.86914 | 10073 ft | 303 kts | 352° |
| 2026-05-08 12:40 | 49.16269 | 2.86561 | 10064 ft | 315 kts | 352° |
| 2026-05-08 12:40 | 49.18429 | 2.86206 | 10070 ft | 314 kts | 352° |
| 2026-05-08 12:40 | 49.20614 | 2.85845 | 10073 ft | 318 kts | 352° |
| 2026-05-08 12:40 | 49.22802 | 2.85484 | 10062 ft | 315 kts | 352° |
| 2026-05-08 12:41 | 49.24980 | 2.85130 | 10071 ft | 317 kts | 353° |
| 2026-05-08 12:41 | 49.27172 | 2.84772 | 10074 ft | 322 kts | 353° |
| 2026-05-08 12:41 | 49.29360 | 2.84414 | 10171 ft | 317 kts | 353° |
| 2026-05-08 12:41 | 49.31649 | 2.84036 | 10430 ft | 336 kts | 353° |
| 2026-05-08 12:42 | 49.33967 | 2.83656 | 10981 ft | 343 kts | 353° |
| 2026-05-08 12:42 | 49.36356 | 2.83263 | 11638 ft | 347 kts | 353° |
| 2026-05-08 12:42 | 49.38768 | 2.82862 | 12301 ft | 351 kts | 353° |
| 2026-05-08 12:42 | 49.41205 | 2.82454 | 12953 ft | 354 kts | 353° |
| 2026-05-08 12:43 | 49.43677 | 2.82045 | 13612 ft | 358 kts | 353° |
| 2026-05-08 12:43 | 49.46172 | 2.81632 | 14212 ft | 362 kts | 353° |
| 2026-05-08 12:43 | 49.48674 | 2.81215 | 14791 ft | 365 kts | 352° |
| 2026-05-08 12:43 | 49.51216 | 2.80791 | 15386 ft | 368 kts | 353° |
| 2026-05-08 12:44 | 49.53771 | 2.80368 | 15977 ft | 371 kts | 352° |
| 2026-05-08 12:44 | 49.56351 | 2.79938 | 16549 ft | 374 kts | 352° |
| 2026-05-08 12:44 | 49.58953 | 2.79504 | 17110 ft | 377 kts | 352° |
| 2026-05-08 12:44 | 49.61538 | 2.79070 | 17655 ft | 380 kts | 352° |
| 2026-05-08 12:45 | 49.64179 | 2.78627 | 18192 ft | 384 kts | 352° |
| 2026-05-08 12:45 | 49.66841 | 2.78179 | 18681 ft | 387 kts | 352° |
| 2026-05-08 12:45 | 49.69524 | 2.77728 | 18987 ft | 389 kts | 352° |
| 2026-05-08 12:45 | 49.72219 | 2.77276 | 19069 ft | 389 kts | 352° |
| 2026-05-08 12:46 | 49.74911 | 2.76826 | 19162 ft | 391 kts | 352° |
| 2026-05-08 12:46 | 49.77614 | 2.76374 | 19665 ft | 392 kts | 353° |
| 2026-05-08 12:46 | 49.80356 | 2.76322 | 20126 ft | 396 kts | 4° |
| 2026-05-08 12:46 | 49.83045 | 2.77071 | 20556 ft | 400 kts | 15° |
| 2026-05-08 12:47 | 49.85676 | 2.78644 | 20978 ft | 403 kts | 26° |
| 2026-05-08 12:47 | 49.88065 | 2.80851 | 21378 ft | 406 kts | 32° |
| 2026-05-08 12:47 | 49.90456 | 2.83207 | 21807 ft | 408 kts | 32° |
| 2026-05-08 12:47 | 49.92868 | 2.85575 | 22212 ft | 411 kts | 32° |
| 2026-05-08 12:48 | 49.95294 | 2.87928 | 22648 ft | 413 kts | 29° |
| 2026-05-08 12:48 | 49.97828 | 2.90018 | 23071 ft | 415 kts | 26° |
| 2026-05-08 12:48 | 50.00416 | 2.92054 | 23503 ft | 417 kts | 26° |
| 2026-05-08 12:48 | 50.03025 | 2.94057 | 23874 ft | 419 kts | 25° |
| 2026-05-08 12:49 | 50.05650 | 2.96052 | 24041 ft | 420 kts | 25° |
| 2026-05-08 12:49 | 50.08240 | 2.98027 | 24083 ft | 420 kts | 25° |
| 2026-05-08 12:49 | 50.10861 | 3.00039 | 24079 ft | 420 kts | 26° |
| 2026-05-08 12:49 | 50.13477 | 3.02060 | 24079 ft | 420 kts | 26° |
| 2026-05-08 12:50 | 50.16088 | 3.04092 | 24078 ft | 420 kts | 26° |
| 2026-05-08 12:50 | 50.18689 | 3.06123 | 24076 ft | 419 kts | 26° |
| 2026-05-08 12:50 | 50.21303 | 3.08169 | 24080 ft | 419 kts | 26° |
| 2026-05-08 12:50 | 50.23903 | 3.10205 | 24076 ft | 419 kts | 26° |
| 2026-05-08 12:51 | 50.26477 | 3.12222 | 24078 ft | 418 kts | 26° |
| 2026-05-08 12:51 | 50.31681 | 3.16293 | 24077 ft | 419 kts | 26° |
| 2026-05-08 12:51 | 50.34280 | 3.18331 | 24087 ft | 419 kts | 26° |
| 2026-05-08 12:52 | 50.36891 | 3.20384 | 24089 ft | 419 kts | 26° |
| 2026-05-08 12:52 | 50.42080 | 3.24473 | 24077 ft | 419 kts | 26° |
| 2026-05-08 12:52 | 50.44682 | 3.26519 | 24077 ft | 419 kts | 25° |
| 2026-05-08 12:53 | 50.47292 | 3.28576 | 24084 ft | 420 kts | 26° |
| 2026-05-08 12:53 | 50.49909 | 3.30653 | 24084 ft | 420 kts | 26° |
| 2026-05-08 12:53 | 50.52501 | 3.32711 | 24084 ft | 420 kts | 26° |
| 2026-05-08 12:53 | 50.55077 | 3.34754 | 24085 ft | 420 kts | 26° |
| 2026-05-08 12:54 | 50.57683 | 3.36819 | 24083 ft | 420 kts | 26° |
| 2026-05-08 12:54 | 50.60299 | 3.38892 | 24082 ft | 420 kts | 26° |
| 2026-05-08 12:54 | 50.62905 | 3.40962 | 24080 ft | 420 kts | 26° |
| 2026-05-08 12:54 | 50.65507 | 3.43031 | 24095 ft | 420 kts | 26° |
| 2026-05-08 12:55 | 50.68118 | 3.45108 | 24091 ft | 420 kts | 26° |
| 2026-05-08 12:55 | 50.69834 | 3.46476 | 23992 ft | 413 kts | 26° |
| 2026-05-08 12:55 | 50.72352 | 3.48487 | 23752 ft | 399 kts | 26° |
| 2026-05-08 12:55 | 50.75594 | 3.51087 | 23390 ft | 392 kts | 26° |
| 2026-05-08 12:56 | 50.78010 | 3.53028 | 23119 ft | 389 kts | 26° |
| 2026-05-08 12:56 | 50.80423 | 3.54967 | 22850 ft | 388 kts | 26° |
| 2026-05-08 12:56 | 50.82813 | 3.56890 | 22583 ft | 386 kts | 26° |
| 2026-05-08 12:56 | 50.85199 | 3.58812 | 22311 ft | 384 kts | 26° |
| 2026-05-08 12:57 | 50.86774 | 3.60080 | 22132 ft | 383 kts | 26° |
| 2026-05-08 12:57 | 50.89150 | 3.61958 | 21859 ft | 381 kts | 23° |
| 2026-05-08 12:57 | 50.91656 | 3.63302 | 21602 ft | 378 kts | 12° |
| 2026-05-08 12:57 | 50.94219 | 3.63886 | 21261 ft | 368 kts | 1° |
| 2026-05-08 12:58 | 50.97579 | 3.64084 | 20682 ft | 361 kts | 1° |
| 2026-05-08 12:58 | 51.00070 | 3.64238 | 20255 ft | 357 kts | 1° |
| 2026-05-08 12:58 | 51.01735 | 3.64347 | 19962 ft | 354 kts | 1° |
| 2026-05-08 12:58 | 51.04158 | 3.64508 | 19539 ft | 350 kts | 1° |
| 2026-05-08 12:59 | 51.06574 | 3.64668 | 19125 ft | 347 kts | 1° |
| 2026-05-08 12:59 | 51.08981 | 3.64824 | 18703 ft | 343 kts | 1° |
| 2026-05-08 12:59 | 51.11349 | 3.64973 | 18282 ft | 340 kts | 2° |
| 2026-05-08 12:59 | 51.13709 | 3.65125 | 17840 ft | 336 kts | 2° |
| 2026-05-08 13:00 | 51.16030 | 3.65277 | 17442 ft | 332 kts | 1° |
| 2026-05-08 13:00 | 51.18326 | 3.65425 | 17057 ft | 329 kts | 1° |
| 2026-05-08 13:00 | 51.20609 | 3.65584 | 16668 ft | 327 kts | 4° |
| 2026-05-08 13:00 | 51.22847 | 3.66219 | 16279 ft | 325 kts | 16° |
| 2026-05-08 13:01 | 51.24917 | 3.67513 | 15899 ft | 324 kts | 27° |
| 2026-05-08 13:01 | 51.26835 | 3.69452 | 15509 ft | 321 kts | 36° |
| 2026-05-08 13:01 | 51.28621 | 3.71516 | 15116 ft | 320 kts | 36° |
| 2026-05-08 13:01 | 51.30421 | 3.73579 | 14742 ft | 318 kts | 36° |
| 2026-05-08 13:02 | 51.32209 | 3.75628 | 14373 ft | 317 kts | 36° |
| 2026-05-08 13:02 | 51.33999 | 3.77678 | 13987 ft | 315 kts | 36° |
| 2026-05-08 13:02 | 51.35775 | 3.79718 | 13567 ft | 313 kts | 36° |
| 2026-05-08 13:02 | 51.37532 | 3.81745 | 13208 ft | 311 kts | 36° |
| 2026-05-08 13:03 | 51.39287 | 3.83768 | 12809 ft | 309 kts | 36° |
| 2026-05-08 13:03 | 51.41058 | 3.85600 | 12428 ft | 305 kts | 23° |
| 2026-05-08 13:03 | 51.43104 | 3.86300 | 12018 ft | 300 kts | 357° |
| 2026-05-08 13:03 | 51.45161 | 3.85695 | 11571 ft | 298 kts | 343° |
| 2026-05-08 13:04 | 51.47113 | 3.84757 | 11129 ft | 297 kts | 342° |
| 2026-05-08 13:04 | 51.49074 | 3.83772 | 10733 ft | 295 kts | 341° |
| 2026-05-08 13:04 | 51.51035 | 3.82771 | 10315 ft | 294 kts | 341° |
| 2026-05-08 13:04 | 51.52966 | 3.81788 | 9932 ft | 291 kts | 342° |
| 2026-05-08 13:05 | 51.54951 | 3.81312 | 9499 ft | 288 kts | 3° |
| 2026-05-08 13:05 | 51.56884 | 3.82055 | 9074 ft | 286 kts | 26° |
| 2026-05-08 13:05 | 51.58516 | 3.83866 | 8611 ft | 285 kts | 40° |
| 2026-05-08 13:05 | 51.60039 | 3.85884 | 8167 ft | 284 kts | 40° |
| 2026-05-08 13:06 | 51.61555 | 3.87892 | 7747 ft | 281 kts | 39° |
| 2026-05-08 13:06 | 51.63044 | 3.89862 | 7334 ft | 280 kts | 39° |
| 2026-05-08 13:06 | 51.64539 | 3.91842 | 6974 ft | 276 kts | 39° |
| 2026-05-08 13:06 | 51.65979 | 3.93746 | 6850 ft | 262 kts | 39° |
| 2026-05-08 13:07 | 51.67352 | 3.95564 | 6728 ft | 249 kts | 39° |
| 2026-05-08 13:07 | 51.68656 | 3.97289 | 6285 ft | 238 kts | 39° |
| 2026-05-08 13:07 | 51.69941 | 3.98990 | 5879 ft | 236 kts | 39° |
| 2026-05-08 13:07 | 51.71170 | 4.00617 | 5745 ft | 222 kts | 40° |
| 2026-05-08 13:08 | 51.72314 | 4.02133 | 5604 ft | 201 kts | 40° |
| 2026-05-08 13:08 | 51.73363 | 4.03526 | 5242 ft | 192 kts | 40° |
| 2026-05-08 13:08 | 51.74391 | 4.04894 | 4908 ft | 191 kts | 39° |
| 2026-05-08 13:08 | 51.75413 | 4.06258 | 4553 ft | 190 kts | 39° |
| 2026-05-08 13:09 | 51.76413 | 4.07591 | 4163 ft | 189 kts | 40° |
| 2026-05-08 13:09 | 51.77425 | 4.08938 | 3844 ft | 188 kts | 40° |
| 2026-05-08 13:09 | 51.78426 | 4.10273 | 3532 ft | 186 kts | 40° |
| 2026-05-08 13:09 | 51.79414 | 4.11592 | 3226 ft | 184 kts | 40° |
| 2026-05-08 13:10 | 51.80400 | 4.12908 | 2886 ft | 184 kts | 40° |
| 2026-05-08 13:10 | 51.81382 | 4.14222 | 2556 ft | 183 kts | 40° |
| 2026-05-08 13:10 | 51.82358 | 4.15526 | 2238 ft | 182 kts | 40° |
| 2026-05-08 13:10 | 51.83332 | 4.16827 | 2033 ft | 181 kts | 40° |
| 2026-05-08 13:11 | 51.84304 | 4.18128 | 1985 ft | 182 kts | 40° |
| 2026-05-08 13:11 | 51.85266 | 4.19414 | 1981 ft | 174 kts | 40° |
| 2026-05-08 13:11 | 51.86147 | 4.20636 | 1976 ft | 160 kts | 48° |
| 2026-05-08 13:11 | 51.86806 | 4.22035 | 1977 ft | 154 kts | 55° |
| 2026-05-08 13:12 | 51.87399 | 4.23431 | 1981 ft | 153 kts | 56° |
| 2026-05-08 13:12 | 51.87987 | 4.24857 | 1986 ft | 152 kts | 57° |
| 2026-05-08 13:12 | 51.88568 | 4.26288 | 1988 ft | 151 kts | 57° |
| 2026-05-08 13:12 | 51.89144 | 4.27712 | 1998 ft | 150 kts | 57° |
| 2026-05-08 13:13 | 51.89720 | 4.29141 | 1945 ft | 152 kts | 57° |
| 2026-05-08 13:13 | 51.90295 | 4.30569 | 1787 ft | 152 kts | 57° |
| 2026-05-08 13:13 | 51.90867 | 4.31992 | 1599 ft | 150 kts | 57° |
| 2026-05-08 13:13 | 51.91430 | 4.33394 | 1416 ft | 145 kts | 57° |
| 2026-05-08 13:14 | 51.91968 | 4.34734 | 1215 ft | 138 kts | 57° |
| 2026-05-08 13:14 | 51.92479 | 4.36007 | 1032 ft | 136 kts | 57° |
| 2026-05-08 13:14 | 51.92991 | 4.37284 | 843 ft | 135 kts | 57° |
| 2026-05-08 13:14 | 51.93507 | 4.38566 | 669 ft | 135 kts | 57° |
| 2026-05-08 13:15 | 51.94016 | 4.39832 | 523 ft | 134 kts | 58° |
| 2026-05-08 13:15 | 51.94527 | 4.41100 | 321 ft | 134 kts | 59° |
| 2026-05-08 13:15 | 51.95024 | 4.42376 | 145 ft | 134 kts | 58° |
| 2026-05-08 13:15 | 51.95526 | 4.43639 | -2 ft | 132 kts | 59° |
| 2026-05-08 13:16 | 51.95941 | 4.44682 | -5 ft | 82 kts | 56° |
| 2026-05-08 13:16 | 51.96150 | 4.45183 | -5 ft | 9 kts | 61° |
| 2026-05-08 13:16 | 51.96158 | 4.45252 | -5 ft | 15 kts | 88° |
| 2026-05-08 13:16 | 51.96071 | 4.45410 | -5 ft | 16 kts | 179° |
| 2026-05-08 13:17 | 51.96026 | 4.45354 | -5 ft | 6 kts | 238° |
| 2026-05-08 13:17 | 51.96004 | 4.45298 | -5 ft | 6 kts | 238° |
| 2026-05-08 13:17 | 51.95984 | 4.45248 | -5 ft | 5 kts | 237° |
| 2026-05-08 13:17 | 51.95952 | 4.45169 | -5 ft | 11 kts | 237° |
| 2026-05-08 13:18 | 51.95911 | 4.45068 | -5 ft | 11 kts | 237° |
| 2026-05-08 13:18 | 51.95872 | 4.44972 | -5 ft | 10 kts | 236° |
| 2026-05-08 13:18 | 51.95823 | 4.44853 | -5 ft | 18 kts | 237° |
| 2026-05-08 13:18 | 51.95741 | 4.44646 | -5 ft | 23 kts | 237° |
| 2026-05-08 13:19 | 51.95654 | 4.44431 | -5 ft | 23 kts | 237° |
| 2026-05-08 13:19 | 51.95569 | 4.44218 | -5 ft | 22 kts | 238° |
| 2026-05-08 13:19 | 51.95484 | 4.44007 | -5 ft | 22 kts | 237° |
| 2026-05-08 13:19 | 51.95401 | 4.43801 | -5 ft | 20 kts | 237° |
| 2026-05-08 13:20 | 51.95342 | 4.43653 | -5 ft | 11 kts | 236° |
| 2026-05-08 13:20 | 51.95299 | 4.43549 | -5 ft | 11 kts | 233° |
| 2026-05-08 13:20 | 51.95238 | 4.43519 | -5 ft | 9 kts | 164° |
| 2026-05-08 13:20 | 51.95182 | 4.43572 | -5 ft | 9 kts | 145° |
| 2026-05-08 13:21 | 51.95133 | 4.43620 | -6 ft | 8 kts | 159° |
| 2026-05-08 13:21 | 51.95097 | 4.43595 | -6 ft | 5 kts | 232° |
| 2026-05-08 13:21 | 51.95083 | 4.43550 | -6 ft | 3 kts | 257° |
| 2026-05-08 13:21 | 51.95087 | 4.43520 | -6 ft | 2 kts | 296° |
| 2026-05-08 13:22 | 51.95094 | 4.43509 | -6 ft | 1 kts | 315° |
| 2026-05-08 13:22 | 51.95101 | 4.43500 | -6 ft | 1 kts | 322° |
| 2026-05-08 13:22 | 51.95104 | 4.43496 | -6 ft | 0 kts | 323° |
| 2026-05-08 13:22 | 51.95111 | 4.43488 | -6 ft | 3 kts | 322° |
| 2026-05-08 13:23 | 51.95112 | 4.43487 | -6 ft | 0 kts | 322° |